Terminal Aerodrome Forecast
Issued by NWS

Home | Current Version | Previous Version | Graphics & Text | Print | Product List | Glossary On
Versions: 1 2 3 4 5 6 7 8 9 10 11 12 13
000
FTUS45 KGGW 081723
TAFSDY
TAF
KSDY 081723Z 0818/0918 30015KT P6SM SCT120 BKN200
     FM090200 30008KT P6SM FEW180
     FM091100 24005KT P6SM FEW220
     FM091600 25009KT P6SM FEW230=

USA.gov is the U.S. government's official web portal to all federal, state and local government web resources and services.